Time;durP1;ratioP1;P1;durP2;ratioP2;P2;SDS_P1;SDS_P2;PMS_P1;PMS_P2;Temp;Humidity;BMP_temperature;BMP_pressure;BME280_temperature;BME280_humidity;BME280_pressure;Samples;Min_cycle;Max_cycle;Signal;HPM_P1;HPM_P2
2024/01/24 00:00:09;;;;;;;2.85;0.50;;;;;;;11.37;78.80;100247.53;336267;28;19090;-76
2024/01/24 00:00:21;;;;;;;2.13;0.40;;;;;;;11.34;79.20;100245.84;335666;28;5381;-77
2024/01/24 00:00:33;;;;;;;1.35;0.60;;;;;;;11.36;79.27;100243.22;334235;28;18103;-76
2024/01/24 00:00:45;;;;;;;1.63;0.65;;;;;;;11.35;78.74;100257.97;337874;28;4661;-78
2024/01/24 00:00:57;;;;;;;3.05;0.60;;;;;;;11.37;78.92;100256.19;334441;28;18251;-78
2024/01/24 00:01:09;;;;;;;2.08;0.43;;;;;;;11.38;79.24;100257.88;337734;28;4672;-76
2024/01/24 00:01:21;;;;;;;1.48;0.38;;;;;;;11.35;79.24;100257.97;335631;28;5363;-76
2024/01/24 00:01:34;;;;;;;1.92;0.40;;;;;;;11.32;79.52;100252.00;336305;28;17170;-77
2024/01/24 00:01:46;;;;;;;3.90;0.50;;;;;;;11.34;79.70;100250.22;337491;28;4692;-77
2024/01/24 00:01:58;;;;;;;3.10;0.30;;;;;;;11.23;79.93;100253.09;334449;28;18800;-76
2024/01/24 00:02:10;;;;;;;0.88;0.30;;;;;;;11.37;79.42;100242.34;336998;28;4570;-77
2024/01/24 00:02:22;;;;;;;1.70;0.50;;;;;;;11.41;78.99;100246.56;332225;28;4745;-77
2024/01/24 00:02:34;;;;;;;1.90;0.43;;;;;;;11.48;78.96;100248.09;333922;28;18205;-77
2024/01/24 00:02:48;;;;;;;2.13;0.57;;;;;;;11.43;79.37;100254.31;336449;28;4640;-77
2024/01/24 00:03:01;;;;;;;2.97;0.50;;;;;;;11.49;78.83;100249.81;332196;29;17731;-77
2024/01/24 00:03:13;;;;;;;3.05;0.70;;;;;;;11.48;79.10;100242.88;332918;29;17947;-78
2024/01/24 00:03:26;;;;;;;3.53;0.90;;;;;;;11.54;79.00;100241.88;335945;29;5077;-77
2024/01/24 00:03:38;;;;;;;2.70;0.80;;;;;;;11.42;79.62;100250.00;328713;29;5984;-76
2024/01/24 00:03:50;;;;;;;1.42;0.50;;;;;;;11.41;79.82;100246.56;335145;28;5366;-78
2024/01/24 00:04:02;;;;;;;1.25;0.40;;;;;;;11.42;79.85;100248.25;336166;28;4603;-77
2024/01/24 00:04:14;;;;;;;2.20;0.30;;;;;;;11.47;79.70;100229.91;332206;29;18594;-77
2024/01/24 00:04:26;;;;;;;2.50;0.40;;;;;;;11.52;79.34;100249.72;334763;29;4718;-77
2024/01/24 00:04:38;;;;;;;2.08;0.30;;;;;;;11.53;79.04;100256.66;332186;29;19092;-76
2024/01/24 00:04:50;;;;;;;1.92;0.40;;;;;;;11.54;79.29;100250.53;335305;28;4600;-76
2024/01/24 00:05:03;;;;;;;2.85;0.50;;;;;;;11.53;79.12;100243.63;336737;28;4581;-77
2024/01/24 00:05:15;;;;;;;1.90;0.50;;;;;;;11.46;79.26;100260.28;328649;29;18057;-76
2024/01/24 00:05:28;;;;;;;1.08;0.40;;;;;;;11.53;79.31;100234.94;335712;29;4578;-77
2024/01/24 00:05:40;;;;;;;0.40;0.30;;;;;;;11.62;79.05;100239.91;333687;28;16604;-77
2024/01/24 00:05:52;;;;;;;0.60;0.25;;;;;;;11.67;78.98;100237.16;336496;28;5373;-77
2024/01/24 00:06:04;;;;;;;1.50;0.30;;;;;;;11.73;78.62;100237.00;334933;28;16586;-76
2024/01/24 00:06:16;;;;;;;1.40;0.30;;;;;;;11.74;78.41;100233.50;338129;28;5320;-77
2024/01/24 00:06:28;;;;;;;2.20;0.50;;;;;;;11.67;78.64;100238.03;338734;28;4619;-76
2024/01/24 00:06:40;;;;;;;1.80;0.50;;;;;;;11.64;78.69;100221.66;334697;28;19239;-77
2024/01/24 00:06:52;;;;;;;2.00;0.55;;;;;;;11.63;78.92;100240.75;338499;28;5328;-76
2024/01/24 00:07:04;;;;;;;2.85;0.50;;;;;;;11.58;79.19;100233.06;337208;28;17991;-77
2024/01/24 00:07:16;;;;;;;4.30;0.60;;;;;;;11.57;79.08;100237.44;339967;28;5398;-77
2024/01/24 00:07:28;;;;;;;4.10;0.57;;;;;;;11.62;79.34;100239.91;337520;28;11004;-76
2024/01/24 00:07:41;;;;;;;4.23;0.53;;;;;;;11.63;78.93;100226.00;338462;28;4604;-77
2024/01/24 00:07:53;;;;;;;4.20;0.70;;;;;;;11.58;78.83;100244.34;338601;28;5004;-76
2024/01/24 00:08:05;;;;;;;3.38;0.70;;;;;;;11.66;78.67;100219.84;337987;28;13668;-77
2024/01/24 00:08:17;;;;;;;3.30;0.60;;;;;;;11.72;78.62;100233.53;335139;28;19228;-77
2024/01/24 00:08:29;;;;;;;3.33;0.47;;;;;;;11.73;78.36;100226.56;337317;28;5556;-77
2024/01/24 00:08:41;;;;;;;2.78;0.55;;;;;;;11.69;78.39;100235.38;336359;28;17701;-76
2024/01/24 00:08:53;;;;;;;2.50;0.60;;;;;;;11.64;78.85;100234.66;338436;28;4598;-77
2024/01/24 00:09:05;;;;;;;1.00;0.38;;;;;;;11.58;78.91;100226.09;335947;28;12883;-76
2024/01/24 00:09:17;;;;;;;1.15;0.40;;;;;;;11.66;78.82;100236.31;338588;28;4490;-77
2024/01/24 00:09:31;;;;;;;1.27;0.32;;;;;;;11.68;78.62;100238.88;333806;28;4613;-76
2024/01/24 00:09:43;;;;;;;2.25;0.43;;;;;;;11.69;78.64;100237.97;336039;28;18183;-77
2024/01/24 00:09:55;;;;;;;3.00;0.40;;;;;;;11.64;78.74;100229.47;334502;28;12292;-76
2024/01/24 00:10:07;;;;;;;3.55;0.52;;;;;;;11.63;79.00;100225.13;337402;28;4525;-77
2024/01/24 00:10:20;;;;;;;1.60;0.30;;;;;;;11.63;78.79;100227.72;334867;28;4675;-76
2024/01/24 00:10:32;;;;;;;2.33;0.50;;;;;;;11.59;79.24;100209.59;335627;29;4761;-77
2024/01/24 00:10:44;;;;;;;1.50;0.50;;;;;;;11.62;78.89;100219.06;334355;28;5101;-77
2024/01/24 00:10:56;;;;;;;0.73;0.38;;;;;;;11.73;78.66;100217.03;331998;28;12109;-76
2024/01/24 00:11:08;;;;;;;2.10;0.40;;;;;;;11.76;78.32;100219.53;335014;28;5368;-77
2024/01/24 00:11:20;;;;;;;2.30;0.50;;;;;;;11.72;78.51;100245.72;335852;28;4865;-76
2024/01/24 00:11:32;;;;;;;3.08;0.80;;;;;;;11.66;78.37;100227.66;332843;28;18373;-76
2024/01/24 00:11:44;;;;;;;3.05;0.98;;;;;;;11.69;78.79;100222.34;336969;28;4529;-77
2024/01/24 00:11:57;;;;;;;2.95;0.75;;;;;;;11.70;78.67;100209.28;333907;28;14919;-77
2024/01/24 00:12:09;;;;;;;1.67;0.47;;;;;;;11.70;78.41;100211.06;336946;28;4684;-77
2024/01/24 00:12:22;;;;;;;0.90;0.30;;;;;;;11.65;78.86;100216.41;330152;28;18048;-76
2024/01/24 00:12:34;;;;;;;1.35;0.32;;;;;;;11.65;79.05;100223.34;337930;28;5339;-77
2024/01/24 00:12:46;;;;;;;1.52;0.30;;;;;;;11.66;78.81;100220.69;335818;28;17128;-76
2024/01/24 00:12:59;;;;;;;1.60;0.30;;;;;;;11.71;78.63;100225.75;338904;28;4531;-77
2024/01/24 00:13:11;;;;;;;1.60;0.45;;;;;;;11.68;78.81;100233.69;335403;28;10974;-76
2024/01/24 00:13:23;;;;;;;1.17;0.47;;;;;;;11.65;78.49;100202.50;339049;28;4517;-77
2024/01/24 00:13:35;;;;;;;2.63;0.50;;;;;;;11.72;78.59;100210.09;338788;28;4619;-77
2024/01/24 00:13:47;;;;;;;2.40;0.50;;;;;;;11.73;78.95;100203.13;335282;28;4753;-76
2024/01/24 00:13:59;;;;;;;0.90;0.38;;;;;;;11.69;78.70;100220.63;334745;28;4846;-76
2024/01/24 00:14:11;;;;;;;0.63;0.30;;;;;;;11.72;78.63;100204.91;338976;28;4560;-77
2024/01/24 00:14:23;;;;;;;0.85;0.40;;;;;;;11.71;78.77;100199.72;333380;28;18569;-77
2024/01/24 00:14:35;;;;;;;1.88;0.50;;;;;;;11.71;78.84;100191.91;338800;28;4518;-77
2024/01/24 00:14:47;;;;;;;1.70;0.40;;;;;;;11.65;78.75;100181.66;335593;28;13436;-76
2024/01/24 00:14:59;;;;;;;2.55;0.57;;;;;;;11.71;78.70;100207.53;338809;28;5307;-77
2024/01/24 00:15:11;;;;;;;3.78;0.55;;;;;;;11.77;78.81;100194.34;338111;28;4647;-77
2024/01/24 00:15:23;;;;;;;3.40;0.50;;;;;;;11.77;78.46;100210.84;334668;28;18348;-76
2024/01/24 00:15:35;;;;;;;2.20;0.40;;;;;;;11.72;78.74;100199.69;337245;28;5157;-77
2024/01/24 00:15:47;;;;;;;0.75;0.40;;;;;;;11.70;78.82;100211.06;333318;29;18380;-77
2024/01/24 00:16:00;;;;;;;0.60;0.38;;;;;;;11.71;79.22;100202.31;335189;29;4652;-77
2024/01/24 00:16:12;;;;;;;1.45;0.35;;;;;;;11.72;79.10;100211.88;333091;28;13289;-76
2024/01/24 00:16:24;;;;;;;1.58;0.55;;;;;;;11.75;78.94;100201.34;336172;29;5813;-77
2024/01/24 00:16:36;;;;;;;1.88;0.60;;;;;;;11.68;79.33;100202.44;336297;28;4538;-77
2024/01/24 00:16:48;;;;;;;1.15;0.40;;;;;;;11.60;79.30;100213.91;333120;28;13508;-78
2024/01/24 00:17:01;;;;;;;0.68;0.28;;;;;;;11.59;79.78;100209.59;335851;29;4634;-77
2024/01/24 00:17:13;;;;;;;0.70;0.30;;;;;;;11.57;79.87;100205.34;333434;29;16056;-77
2024/01/24 00:17:25;;;;;;;1.30;0.45;;;;;;;11.55;79.70;100205.38;336261;29;4560;-77
2024/01/24 00:17:37;;;;;;;1.00;0.30;;;;;;;11.56;79.63;100204.47;336221;29;4572;-77
2024/01/24 00:17:49;;;;;;;1.17;0.40;;;;;;;11.57;79.72;100206.19;332767;28;19298;-77
2024/01/24 00:18:01;;;;;;;0.50;0.32;;;;;;;11.62;79.69;100202.59;337048;28;4621;-77
2024/01/24 00:18:13;;;;;;;0.35;0.30;;;;;;;11.60;79.93;100205.25;329901;29;17975;-76
2024/01/24 00:18:26;;;;;;;0.82;0.40;;;;;;;11.64;79.89;100195.59;333376;29;16829;-77
2024/01/24 00:18:38;;;;;;;1.35;0.45;;;;;;;11.64;79.71;100200.81;332588;28;17508;-77
2024/01/24 00:18:50;;;;;;;2.67;0.45;;;;;;;11.66;79.62;100192.06;337475;28;4742;-77
2024/01/24 00:19:02;;;;;;;2.92;0.43;;;;;;;11.73;79.29;100200.53;336009;28;7222;-76
2024/01/24 00:19:15;;;;;;;1.95;0.30;;;;;;;11.77;78.84;100197.81;335955;28;17112;-77
2024/01/24 00:19:27;;;;;;;1.67;0.30;;;;;;;11.73;79.24;100203.13;337675;28;5108;-77
2024/01/24 00:19:39;;;;;;;0.52;0.25;;;;;;;11.72;79.23;100188.44;334411;28;17804;-77
2024/01/24 00:19:51;;;;;;;1.65;0.50;;;;;;;11.68;79.10;100192.00;332475;28;5156;-76
2024/01/24 00:20:03;;;;;;;2.10;0.50;;;;;;;11.68;79.43;100181.59;337360;28;4546;-77
2024/01/24 00:20:15;;;;;;;2.55;0.55;;;;;;;11.72;79.56;100194.47;333110;28;18035;-77
2024/01/24 00:20:27;;;;;;;1.65;0.40;;;;;;;11.72;79.25;100198.84;337115;28;5283;-76
2024/01/24 00:20:39;;;;;;;0.95;0.43;;;;;;;11.70;79.26;100200.63;334678;28;18179;-77
2024/01/24 00:20:53;;;;;;;1.00;0.40;;;;;;;11.69;79.14;100196.31;337238;28;4797;-77
2024/01/24 00:21:05;;;;;;;1.67;0.45;;;;;;;11.66;79.70;100188.59;336336;28;18214;-77
2024/01/24 00:21:17;;;;;;;2.17;0.40;;;;;;;11.72;79.35;100194.47;334390;28;4798;-77
2024/01/24 00:21:29;;;;;;;1.73;0.22;;;;;;;11.77;79.11;100203.03;334819;28;6660;-77
2024/01/24 00:21:41;;;;;;;2.40;0.25;;;;;;;11.77;79.27;100187.41;337557;28;5245;-77
2024/01/24 00:21:53;;;;;;;2.65;0.45;;;;;;;11.78;79.45;100188.25;336703;28;9122;-77
2024/01/24 00:22:05;;;;;;;3.25;0.65;;;;;;;11.82;79.16;100199.44;334810;28;18344;-77
2024/01/24 00:22:17;;;;;;;1.95;0.63;;;;;;;11.81;79.25;100198.56;336857;28;5410;-77
2024/01/24 00:22:29;;;;;;;2.85;0.77;;;;;;;11.79;79.34;100195.16;336733;28;5040;-77
2024/01/24 00:22:41;;;;;;;4.00;0.90;;;;;;;11.80;79.52;100217.72;334862;28;16938;-77
2024/01/24 00:22:53;;;;;;;2.85;0.80;;;;;;;11.79;79.45;100185.59;333040;28;5296;-76
2024/01/24 00:23:05;;;;;;;1.58;0.50;;;;;;;11.79;79.46;100209.03;334824;28;18175;-76
2024/01/24 00:23:17;;;;;;;1.00;0.50;;;;;;;11.77;79.66;100184.78;337086;28;4513;-78
2024/01/24 00:23:29;;;;;;;1.08;0.40;;;;;;;11.76;79.41;100190.03;335202;28;5180;-76
2024/01/24 00:23:41;;;;;;;0.50;0.32;;;;;;;11.76;79.64;100185.69;336921;28;17791;-77
2024/01/24 00:23:53;;;;;;;0.28;0.22;;;;;;;11.73;79.93;100179.69;338773;28;4639;-77
2024/01/24 00:24:06;;;;;;;0.50;0.40;;;;;;;11.83;79.77;100186.38;331179;28;12682;-76
2024/01/24 00:24:18;;;;;;;0.98;0.57;;;;;;;11.87;79.62;100189.72;338387;28;5249;-76
2024/01/24 00:24:30;;;;;;;2.60;0.60;;;;;;;11.86;79.28;100183.66;334768;28;12584;-76
2024/01/24 00:24:42;;;;;;;2.30;0.50;;;;;;;11.86;79.48;100175.00;337033;28;5425;-77
2024/01/24 00:24:54;;;;;;;0.65;0.38;;;;;;;11.81;79.42;100182.94;336632;28;5108;-77
2024/01/24 00:25:06;;;;;;;0.82;0.50;;;;;;;11.79;79.61;100189.94;335273;28;18014;-76
2024/01/24 00:25:18;;;;;;;0.60;0.30;;;;;;;11.76;80.04;100184.84;337567;28;4850;-77
2024/01/24 00:25:30;;;;;;;0.22;0.20;;;;;;;11.74;79.98;100191.84;336616;28;18084;-77
2024/01/24 00:25:42;;;;;;;1.27;0.20;;;;;;;11.73;79.76;100187.50;329579;28;18034;-77
2024/01/24 00:25:54;;;;;;;1.20;0.20;;;;;;;11.77;79.51;100179.59;338345;28;4849;-77
2024/01/24 00:26:06;;;;;;;1.42;0.30;;;;;;;11.80;79.55;100176.88;334935;28;18879;-77
2024/01/24 00:26:18;;;;;;;1.88;0.47;;;;;;;11.89;79.37;100159.31;337062;28;4864;-77
2024/01/24 00:26:30;;;;;;;1.65;0.80;;;;;;;11.90;79.22;100185.31;336367;28;10879;-77
2024/01/24 00:26:42;;;;;;;1.35;0.77;;;;;;;11.81;79.71;100180.31;335520;28;18259;-77
2024/01/24 00:26:54;;;;;;;1.90;0.63;;;;;;;11.80;79.93;100179.47;336850;28;4556;-77
2024/01/24 00:27:06;;;;;;;2.10;0.60;;;;;;;11.83;79.68;100180.28;328922;28;18463;-77
2024/01/24 00:27:19;;;;;;;1.35;0.43;;;;;;;11.83;79.54;100196.78;337661;28;4734;-77
2024/01/24 00:27:31;;;;;;;1.23;0.38;;;;;;;11.90;79.39;100161.03;333800;28;16319;-78
2024/01/24 00:27:44;;;;;;;2.33;0.40;;;;;;;11.92;78.96;100183.50;337241;28;4553;-77
2024/01/24 00:27:56;;;;;;;1.40;0.30;;;;;;;11.88;79.01;100183.63;334066;28;18195;-77
2024/01/24 00:28:08;;;;;;;1.33;0.20;;;;;;;11.90;78.99;100182.72;337265;28;4714;-77
2024/01/24 00:28:22;;;;;;;1.20;0.20;;;;;;;11.93;78.87;100193.06;337510;28;5606;-77
2024/01/24 00:28:34;;;;;;;1.30;0.25;;;;;;;11.95;78.96;100186.03;335050;28;18092;-76
2024/01/24 00:28:46;;;;;;;2.70;0.30;;;;;;;11.88;78.93;100194.03;337380;28;5074;-77
2024/01/24 00:28:57;;;;;;;2.72;0.25;;;;;;;11.95;79.16;100178.22;335631;28;16571;-76
2024/01/24 00:29:10;;;;;;;0.47;0.25;;;;;;;11.89;79.31;100181.00;337766;28;4534;-77
2024/01/24 00:29:22;;;;;;;0.47;0.30;;;;;;;11.82;79.42;100174.22;335018;28;19162;-77
2024/01/24 00:29:34;;;;;;;0.65;0.40;;;;;;;11.83;79.49;100175.97;337690;28;4672;-77
2024/01/24 00:29:46;;;;;;;0.70;0.40;;;;;;;11.85;79.57;100174.16;338519;28;5214;-76
2024/01/24 00:29:58;;;;;;;0.45;0.25;;;;;;;11.85;79.38;100189.78;330847;28;18060;-77
2024/01/24 00:30:10;;;;;;;0.88;0.10;;;;;;;11.86;79.47;100181.06;338168;28;4593;-76
2024/01/24 00:30:22;;;;;;;0.95;0.20;;;;;;;11.84;79.51;100187.22;335836;28;18129;-76
2024/01/24 00:30:34;;;;;;;1.20;0.30;;;;;;;11.84;79.91;100188.06;338237;28;4601;-77
2024/01/24 00:30:47;;;;;;;1.10;0.65;;;;;;;11.85;79.77;100189.78;337087;28;5194;-76
2024/01/24 00:30:59;;;;;;;1.02;0.60;;;;;;;11.85;79.78;100192.41;337069;28;18237;-77
2024/01/24 00:31:11;;;;;;;1.20;0.52;;;;;;;11.78;80.10;100189.09;338614;28;4888;-77
2024/01/24 00:31:23;;;;;;;1.17;0.40;;;;;;;11.82;79.61;100184.66;335081;28;18249;-76
2024/01/24 00:31:35;;;;;;;1.17;0.40;;;;;;;11.80;79.99;100192.50;337082;28;4656;-76
2024/01/24 00:31:50;;;;;;;1.50;0.50;;;;;;;11.81;79.96;100193.34;337543;28;4577;-77
2024/01/24 00:32:03;;;;;;;1.27;0.40;;;;;;;11.79;79.86;100189.94;334768;28;17852;-77
2024/01/24 00:32:15;;;;;;;1.55;0.30;;;;;;;11.75;80.25;100193.53;335186;28;18244;-77
2024/01/24 00:32:27;;;;;;;2.20;0.30;;;;;;;11.77;80.19;100186.53;337716;28;5034;-76
2024/01/24 00:32:39;;;;;;;1.63;0.40;;;;;;;11.67;80.16;100185.09;335517;28;18028;-76
2024/01/24 00:32:51;;;;;;;3.38;0.47;;;;;;;11.74;80.20;100192.69;338827;28;5422;-77
2024/01/24 00:33:04;;;;;;;2.38;0.40;;;;;;;11.72;80.60;100198.84;335137;28;18488;-76
2024/01/24 00:33:16;;;;;;;2.03;0.30;;;;;;;11.76;80.25;100190.03;337522;28;5272;-77
2024/01/24 00:33:31;;;;;;;1.92;0.40;;;;;;;11.80;80.01;100197.72;334472;28;18175;-77
2024/01/24 00:33:43;;;;;;;1.85;0.40;;;;;;;11.79;80.21;100184.72;333785;28;18065;-76
2024/01/24 00:33:55;;;;;;;1.55;0.50;;;;;;;11.80;80.27;100187.28;336163;28;4600;-77
2024/01/24 00:34:08;;;;;;;3.50;0.55;;;;;;;11.86;80.28;100201.91;336660;28;4557;-76
2024/01/24 00:34:20;;;;;;;3.72;0.57;;;;;;;11.75;80.39;100188.31;334923;28;17172;-77
2024/01/24 00:34:32;;;;;;;1.48;0.40;;;;;;;11.74;80.50;100192.69;337610;28;4607;-77
2024/01/24 00:34:44;;;;;;;0.47;0.38;;;;;;;11.76;80.69;100200.47;332779;28;13235;-76
2024/01/24 00:34:56;;;;;;;0.95;0.40;;;;;;;11.73;80.66;100197.94;336841;28;4741;-78
2024/01/24 00:35:08;;;;;;;1.35;0.40;;;;;;;11.75;80.73;100193.53;337500;28;4831;-77
2024/01/24 00:35:20;;;;;;;1.10;0.35;;;;;;;11.75;80.77;100190.94;334289;28;19436;-77
2024/01/24 00:35:32;;;;;;;0.80;0.30;;;;;;;11.73;80.86;100190.13;336422;28;4596;-77
2024/01/24 00:35:44;;;;;;;0.75;0.30;;;;;;;11.75;81.00;100201.34;334815;28;16368;-77
2024/01/24 00:35:56;;;;;;;1.33;0.28;;;;;;;11.73;81.14;100190.13;337295;28;5437;-77
2024/01/24 00:36:08;;;;;;;2.20;0.30;;;;;;;11.68;80.80;100238.88;337433;28;4686;-77
2024/01/24 00:36:21;;;;;;;4.30;0.50;;;;;;;11.81;80.63;100193.34;334270;28;18228;-77
2024/01/24 00:36:33;;;;;;;2.70;0.45;;;;;;;11.82;80.54;100183.81;334488;28;13101;-76
2024/01/24 00:36:46;;;;;;;0.60;0.28;;;;;;;11.81;80.30;100198.56;337416;28;4489;-76
2024/01/24 00:36:58;;;;;;;0.20;0.20;;;;;;;11.84;80.64;100193.28;337425;28;4664;-77
2024/01/24 00:37:10;;;;;;;0.20;0.20;;;;;;;11.88;80.27;100200.09;334451;28;17646;-77
2024/01/24 00:37:23;;;;;;;0.73;0.32;;;;;;;11.87;80.38;100198.41;336920;28;5279;-76
2024/01/24 00:37:35;;;;;;;1.50;0.50;;;;;;;11.89;80.34;100198.38;331247;28;4681;-76
2024/01/24 00:37:47;;;;;;;2.05;0.65;;;;;;;11.85;80.43;100197.59;337142;28;5536;-77
2024/01/24 00:37:59;;;;;;;4.35;0.55;;;;;;;11.85;80.44;100205.41;337969;28;5274;-77
2024/01/24 00:38:11;;;;;;;3.35;0.43;;;;;;;11.87;80.24;100171.47;335763;28;18089;-76
2024/01/24 00:38:23;;;;;;;2.70;0.32;;;;;;;11.89;80.27;100200.97;337178;28;4661;-76
2024/01/24 00:38:35;;;;;;;0.68;0.30;;;;;;;11.87;80.52;100197.53;335487;28;5593;-76
2024/01/24 00:38:47;;;;;;;0.60;0.30;;;;;;;11.85;80.33;100194.13;332306;28;4602;-77
2024/01/24 00:38:59;;;;;;;1.58;0.40;;;;;;;11.87;80.27;100203.63;336227;28;4594;-77
2024/01/24 00:39:13;;;;;;;2.60;0.40;;;;;;;11.92;80.21;100196.53;332362;28;17557;-76
2024/01/24 00:39:25;;;;;;;2.60;0.30;;;;;;;11.96;79.99;100194.69;332976;28;13885;-76
2024/01/24 00:39:37;;;;;;;1.20;0.20;;;;;;;11.89;80.14;100195.78;336088;28;4534;-77
2024/01/24 00:39:49;;;;;;;1.13;0.22;;;;;;;11.93;80.13;100195.66;336172;28;4569;-77
2024/01/24 00:40:03;;;;;;;1.15;0.30;;;;;;;11.89;80.18;100191.44;335428;28;18049;-77
2024/01/24 00:40:15;;;;;;;1.52;0.40;;;;;;;11.86;80.37;100196.69;338482;28;6176;-77
2024/01/24 00:40:27;;;;;;;1.75;0.40;;;;;;;11.92;80.23;100180.91;333244;28;18816;-77
2024/01/24 00:40:39;;;;;;;1.05;0.25;;;;;;;11.93;79.94;100203.47;336841;28;5055;-77
2024/01/24 00:40:51;;;;;;;0.55;0.22;;;;;;;12.01;79.70;100197.16;335671;28;4728;-76
2024/01/24 00:41:03;;;;;;;0.63;0.22;;;;;;;11.93;79.77;100197.38;339925;28;4648;-77
2024/01/24 00:41:15;;;;;;;1.60;0.30;;;;;;;11.90;80.27;100197.50;339079;28;4517;-77
2024/01/24 00:41:27;;;;;;;1.60;0.38;;;;;;;11.91;80.28;100184.44;336215;28;18202;-77
2024/01/24 00:41:41;;;;;;;0.70;0.40;;;;;;;11.87;80.30;100189.72;338203;28;4584;-77
2024/01/24 00:41:56;;;;;;;1.10;0.30;;;;;;;11.85;80.41;100188.91;336346;28;18249;-77
2024/01/24 00:42:08;;;;;;;0.70;0.20;;;;;;;11.96;80.06;100195.56;335525;28;18105;-77
2024/01/24 00:42:20;;;;;;;1.75;0.55;;;;;;;11.93;79.92;100187.84;338125;28;5507;-76
2024/01/24 00:42:32;;;;;;;2.80;1.10;;;;;;;11.97;79.95;100186.84;333620;28;18275;-77
2024/01/24 00:42:44;;;;;;;2.75;0.93;;;;;;;11.90;79.74;100193.13;338599;28;4526;-77
2024/01/24 00:42:56;;;;;;;1.25;0.25;;;;;;;11.96;79.85;100182.53;333308;28;16236;-77
2024/01/24 00:43:08;;;;;;;0.40;0.28;;;;;;;11.92;79.89;100183.50;337447;28;4570;-77
2024/01/24 00:43:21;;;;;;;0.60;0.38;;;;;;;11.96;79.83;100186.88;331887;28;5268;-77
2024/01/24 00:43:33;;;;;;;0.60;0.30;;;;;;;11.99;79.95;100181.56;334959;28;18100;-77
2024/01/24 00:43:45;;;;;;;1.73;0.30;;;;;;;11.92;80.10;100180.06;337604;28;4975;-77
2024/01/24 00:43:57;;;;;;;1.60;0.40;;;;;;;11.90;80.21;100187.06;334566;28;12832;-76
2024/01/24 00:44:09;;;;;;;0.47;0.30;;;;;;;11.91;80.48;100187.03;337397;28;5217;-77
2024/01/24 00:44:21;;;;;;;0.70;0.40;;;;;;;11.94;80.19;100181.72;337025;28;4993;-77
2024/01/24 00:44:33;;;;;;;0.70;0.30;;;;;;;11.98;80.20;100185.94;334797;28;18286;-77
2024/01/24 00:44:47;;;;;;;1.83;0.38;;;;;;;11.94;79.82;100189.53;332780;28;5101;-77
2024/01/24 00:44:59;;;;;;;3.20;0.38;;;;;;;11.98;79.79;100191.16;334706;28;18055;-77
2024/01/24 00:45:12;;;;;;;3.10;0.40;;;;;;;12.03;79.93;100187.56;334974;28;13582;-77
2024/01/24 00:45:24;;;;;;;2.63;0.30;;;;;;;11.98;79.84;100170.31;337611;28;5364;-77
2024/01/24 00:45:36;;;;;;;0.22;0.20;;;;;;;12.04;79.58;100179.69;337289;28;4555;-77
2024/01/24 00:45:48;;;;;;;0.40;0.30;;;;;;;12.05;79.64;100188.34;333473;28;18218;-78
2024/01/24 00:46:00;;;;;;;0.70;0.32;;;;;;;12.04;79.66;100184.06;336384;28;5805;-76
2024/01/24 00:46:12;;;;;;;0.73;0.30;;;;;;;12.06;79.37;100203.09;335881;28;4814;-77
2024/01/24 00:46:24;;;;;;;0.50;0.40;;;;;;;12.05;79.68;100196.19;334494;28;18058;-76
2024/01/24 00:46:36;;;;;;;1.05;0.60;;;;;;;12.06;79.51;100183.09;336656;28;5341;-78
2024/01/24 00:46:48;;;;;;;1.00;0.60;;;;;;;12.07;79.86;100189.16;335978;28;4732;-77
2024/01/24 00:47:00;;;;;;;0.77;0.50;;;;;;;12.03;79.84;100183.19;334157;28;4541;-77
2024/01/24 00:47:12;;;;;;;2.05;0.68;;;;;;;12.07;79.99;100189.16;334937;28;5302;-77
2024/01/24 00:47:24;;;;;;;2.03;0.60;;;;;;;12.07;79.73;100183.94;332114;28;18143;-77
2024/01/24 00:47:37;;;;;;;3.13;0.50;;;;;;;12.06;79.64;100188.31;336110;29;4619;-77
2024/01/24 00:47:49;;;;;;;3.50;0.50;;;;;;;12.06;79.74;100171.84;332683;29;11850;-76
2024/01/24 00:48:01;;;;;;;3.70;0.43;;;;;;;12.04;79.75;100181.47;332883;28;17412;-77
2024/01/24 00:48:13;;;;;;;4.13;0.47;;;;;;;12.05;79.58;100190.97;334750;28;4631;-77
2024/01/24 00:48:25;;;;;;;3.40;0.50;;;;;;;11.98;80.00;100177.28;331994;29;18158;-77
2024/01/24 00:48:37;;;;;;;3.55;0.50;;;;;;;12.03;80.02;100174.53;334735;28;5334;-77
2024/01/24 00:48:49;;;;;;;2.53;0.40;;;;;;;12.05;79.77;100172.72;333057;28;18304;-77
2024/01/24 00:49:09;;;;;;;3.35;0.40;;;;;;;12.04;80.13;100191.88;336332;28;4673;-77
2024/01/24 00:49:22;;;;;;;2.90;0.35;;;;;;;11.97;79.87;100188.56;332846;28;17310;-77
2024/01/24 00:49:34;;;;;;;0.68;0.30;;;;;;;11.98;80.01;100169.47;330073;28;16994;-76
2024/01/24 00:49:46;;;;;;;1.55;0.35;;;;;;;12.00;80.04;100188.50;337416;28;4614;-77
2024/01/24 00:49:58;;;;;;;1.60;0.38;;;;;;;12.03;80.16;100200.56;337014;28;5539;-77
2024/01/24 00:50:10;;;;;;;1.05;0.40;;;;;;;12.03;79.99;100166.69;334811;28;17810;-76
2024/01/24 00:50:22;;;;;;;1.33;0.30;;;;;;;11.97;79.95;100173.81;337658;28;4527;-77
2024/01/24 00:50:34;;;;;;;1.42;0.28;;;;;;;12.01;80.11;100186.75;337337;28;18196;-77
2024/01/24 00:50:46;;;;;;;1.38;0.30;;;;;;;12.02;80.21;100180.66;333275;28;16755;-77
2024/01/24 00:50:58;;;;;;;0.50;0.30;;;;;;;12.02;79.94;100184.09;336311;29;4791;-76
2024/01/24 00:51:10;;;;;;;0.47;0.30;;;;;;;12.05;79.80;100180.53;333710;28;4740;-78
2024/01/24 00:51:22;;;;;;;1.40;0.38;;;;;;;12.03;79.88;100166.69;337619;28;4551;-77
2024/01/24 00:51:34;;;;;;;2.50;0.47;;;;;;;12.02;80.09;100193.69;335189;28;5544;-76
2024/01/24 00:51:47;;;;;;;2.30;0.50;;;;;;;12.04;80.00;100168.44;335261;29;18355;-77
2024/01/24 00:52:00;;;;;;;0.60;0.40;;;;;;;11.98;80.19;100165.09;333237;29;13817;-76
2024/01/24 00:52:12;;;;;;;0.47;0.38;;;;;;;11.94;80.38;100189.53;332142;28;5218;-77
2024/01/24 00:52:25;;;;;;;0.98;0.43;;;;;;;11.95;80.23;100180.84;334402;28;9358;-77
2024/01/24 00:52:37;;;;;;;2.28;0.60;;;;;;;11.96;79.97;100159.06;335763;28;17146;-77
2024/01/24 00:52:52;;;;;;;3.15;0.68;;;;;;;12.02;80.15;100175.44;338583;28;4589;-77
2024/01/24 00:53:04;;;;;;;2.08;0.45;;;;;;;11.96;79.96;100179.91;334872;28;17814;-77
2024/01/24 00:53:19;;;;;;;1.30;0.50;;;;;;;11.94;80.30;100181.72;334498;28;17864;-77
2024/01/24 00:53:34;;;;;;;0.88;0.40;;;;;;;11.94;80.52;100179.13;333897;28;17835;-77
2024/01/24 00:53:52;;;;;;;1.23;0.68;;;;;;;11.97;80.76;100184.25;333166;29;17863;-77
2024/01/24 00:54:05;;;;;;;2.10;0.93;;;;;;;12.04;80.34;100173.63;335626;29;17756;-77
2024/01/24 00:54:17;;;;;;;1.52;0.63;;;;;;;12.05;80.37;100170.13;334902;28;18121;-77
2024/01/24 00:54:29;;;;;;;0.90;0.40;;;;;;;12.09;80.25;100187.38;338190;28;5316;-77
2024/01/24 00:54:41;;;;;;;0.82;0.30;;;;;;;12.03;79.92;100177.13;334939;28;13205;-77
2024/01/24 00:54:53;;;;;;;0.63;0.25;;;;;;;11.98;80.47;100175.50;338014;28;4591;-77
2024/01/24 00:55:06;;;;;;;2.40;0.50;;;;;;;11.97;80.59;100189.47;337409;28;4514;-78
2024/01/24 00:55:18;;;;;;;2.13;0.43;;;;;;;11.96;80.31;100172.09;335351;28;17608;-77
2024/01/24 00:55:31;;;;;;;1.75;0.38;;;;;;;12.02;80.52;100188.47;335765;28;11490;-76
2024/01/24 00:55:43;;;;;;;2.20;0.60;;;;;;;12.04;80.30;100189.28;338450;28;5558;-77
2024/01/24 00:55:58;;;;;;;2.30;0.63;;;;;;;11.97;80.45;100186.84;336033;28;19092;-77
2024/01/24 00:56:10;;;;;;;2.45;0.70;;;;;;;11.99;80.50;100166.81;338344;28;5395;-77
2024/01/24 00:56:22;;;;;;;2.20;0.63;;;;;;;12.05;80.20;100167.50;331175;28;17832;-76
2024/01/24 00:56:34;;;;;;;1.25;0.43;;;;;;;12.01;80.47;100177.16;339165;28;5205;-76
2024/01/24 00:56:46;;;;;;;0.65;0.32;;;;;;;11.97;79.90;100163.41;331388;28;4815;-76
2024/01/24 00:56:58;;;;;;;1.73;0.32;;;;;;;11.91;80.52;100175.75;338620;28;5368;-76
2024/01/24 00:57:10;;;;;;;2.30;0.45;;;;;;;11.88;80.56;100189.69;338863;28;5217;-77
2024/01/24 00:57:22;;;;;;;1.67;0.50;;;;;;;11.97;80.72;100179.03;334830;28;17916;-76
2024/01/24 00:57:34;;;;;;;0.75;0.45;;;;;;;11.92;80.93;100172.25;337657;28;5515;-77
2024/01/24 00:57:46;;;;;;;0.50;0.28;;;;;;;11.95;80.80;100179.97;337328;28;14220;-77
2024/01/24 00:57:58;;;;;;;0.93;0.40;;;;;;;11.91;80.85;100173.13;329427;28;18506;-76
2024/01/24 00:58:10;;;;;;;1.00;0.50;;;;;;;11.90;80.92;100177.50;337472;28;4595;-77
2024/01/24 00:58:22;;;;;;;0.43;0.40;;;;;;;11.88;80.91;100163.63;334643;28;16378;-77